sensor_id;sensor_type;location;lat;lon;timestamp;temperature;humidity
37032;DHT22;22940;52.266;10.536;2023-03-01T00:02:09;3.10;1.00
37032;DHT22;22940;52.266;10.536;2023-03-01T07:07:03;0.60;1.00
37032;DHT22;22940;52.266;10.536;2023-03-01T07:11:55;1.20;1.00
37032;DHT22;22940;52.266;10.536;2023-03-01T07:14:21;1.70;1.00
37032;DHT22;22940;52.266;10.536;2023-03-01T09:28:12;5.20;1.00
37032;DHT22;22940;52.266;10.536;2023-03-01T09:30:37;5.00;1.00
37032;DHT22;22940;52.266;10.536;2023-03-01T09:33:03;4.90;1.00
37032;DHT22;22940;52.266;10.536;2023-03-01T09:35:28;4.90;1.00
37032;DHT22;22940;52.266;10.536;2023-03-01T09:37:54;4.90;1.00
37032;DHT22;22940;52.266;10.536;2023-03-01T09:40:20;5.00;1.00
37032;DHT22;22940;52.266;10.536;2023-03-01T09:42:52;5.00;1.00
37032;DHT22;22940;52.266;10.536;2023-03-01T09:45:38;5.10;1.00
37032;DHT22;22940;52.266;10.536;2023-03-01T09:48:05;5.10;1.00
37032;DHT22;22940;52.266;10.536;2023-03-01T09:50:33;5.20;1.00
37032;DHT22;22940;52.266;10.536;2023-03-01T09:53:33;5.40;1.00
37032;DHT22;22940;52.266;10.536;2023-03-01T09:55:54;5.40;1.00
37032;DHT22;22940;52.266;10.536;2023-03-01T10:00:49;5.50;1.00
37032;DHT22;22940;52.266;10.536;2023-03-01T10:05:47;5.80;1.00
37032;DHT22;22940;52.266;10.536;2023-03-01T10:11:01;5.90;1.00
37032;DHT22;22940;52.266;10.536;2023-03-01T10:13:36;6.10;1.00
37032;DHT22;22940;52.266;10.536;2023-03-01T10:16:09;6.20;1.00
37032;DHT22;22940;52.266;10.536;2023-03-01T10:18:35;6.40;1.00
37032;DHT22;22940;52.266;10.536;2023-03-01T10:21:09;6.70;1.00
37032;DHT22;22940;52.266;10.536;2023-03-01T10:23:37;7.00;1.00
37032;DHT22;22940;52.266;10.536;2023-03-01T10:28:41;7.40;1.00
37032;DHT22;22940;52.266;10.536;2023-03-01T10:31:12;7.80;1.00
37032;DHT22;22940;52.266;10.536;2023-03-01T10:33:38;8.70;1.00
37032;DHT22;22940;52.266;10.536;2023-03-01T10:36:07;9.80;1.00
37032;DHT22;22940;52.266;10.536;2023-03-01T10:38:49;10.90;1.00
37032;DHT22;22940;52.266;10.536;2023-03-01T10:41:17;11.50;1.00
37032;DHT22;22940;52.266;10.536;2023-03-01T10:43:50;12.10;1.00
37032;DHT22;22940;52.266;10.536;2023-03-01T10:46:36;12.30;1.00
37032;DHT22;22940;52.266;10.536;2023-03-01T10:49:20;12.40;1.00
37032;DHT22;22940;52.266;10.536;2023-03-01T10:51:50;12.40;1.00
37032;DHT22;22940;52.266;10.536;2023-03-01T10:54:36;12.50;1.00
37032;DHT22;22940;52.266;10.536;2023-03-01T10:57:02;12.70;1.00
37032;DHT22;22940;52.266;10.536;2023-03-01T10:59:30;12.80;1.00
37032;DHT22;22940;52.266;10.536;2023-03-01T11:02:16;13.00;1.00
37032;DHT22;22940;52.266;10.536;2023-03-01T11:07:26;12.90;1.00
37032;DHT22;22940;52.266;10.536;2023-03-01T11:09:52;12.90;1.00
37032;DHT22;22940;52.266;10.536;2023-03-01T11:12:18;12.90;1.00
37032;DHT22;22940;52.266;10.536;2023-03-01T11:14:47;13.00;1.00
37032;DHT22;22940;52.266;10.536;2023-03-01T11:17:19;13.00;1.00
37032;DHT22;22940;52.266;10.536;2023-03-01T11:20:05;13.10;1.00
37032;DHT22;22940;52.266;10.536;2023-03-01T11:22:31;13.30;1.00
37032;DHT22;22940;52.266;10.536;2023-03-01T11:24:58;13.50;1.00
37032;DHT22;22940;52.266;10.536;2023-03-01T11:27:24;13.70;1.00
37032;DHT22;22940;52.266;10.536;2023-03-01T11:29:59;13.70;1.00
37032;DHT22;22940;52.266;10.536;2023-03-01T11:32:26;13.70;1.00
37032;DHT22;22940;52.266;10.536;2023-03-01T11:39:52;14.00;1.00
37032;DHT22;22940;52.266;10.536;2023-03-01T11:42:40;14.00;1.00
37032;DHT22;22940;52.266;10.536;2023-03-01T11:45:09;13.90;1.00
37032;DHT22;22940;52.266;10.536;2023-03-01T11:47:45;13.90;1.00
37032;DHT22;22940;52.266;10.536;2023-03-01T11:52:45;14.10;1.00
37032;DHT22;22940;52.266;10.536;2023-03-01T12:08:07;14.10;1.00
37032;DHT22;22940;52.266;10.536;2023-03-01T12:10:44;14.20;1.00
37032;DHT22;22940;52.266;10.536;2023-03-01T12:23:45;14.60;1.00
37032;DHT22;22940;52.266;10.536;2023-03-01T12:28:46;14.80;1.00
37032;DHT22;22940;52.266;10.536;2023-03-01T12:31:22;14.90;1.00
37032;DHT22;22940;52.266;10.536;2023-03-01T12:34:41;14.80;1.00
37032;DHT22;22940;52.266;10.536;2023-03-01T12:36:56;14.90;1.00
37032;DHT22;22940;52.266;10.536;2023-03-01T12:42:12;14.60;1.00
37032;DHT22;22940;52.266;10.536;2023-03-01T12:44:56;14.60;1.00
37032;DHT22;22940;52.266;10.536;2023-03-01T12:47:33;14.50;1.00
37032;DHT22;22940;52.266;10.536;2023-03-01T12:50:04;14.30;1.00
37032;DHT22;22940;52.266;10.536;2023-03-01T12:52:37;14.40;1.00
37032;DHT22;22940;52.266;10.536;2023-03-01T12:55:06;14.50;1.00
37032;DHT22;22940;52.266;10.536;2023-03-01T12:57:38;14.50;1.00
37032;DHT22;22940;52.266;10.536;2023-03-01T13:02:43;14.50;1.00
37032;DHT22;22940;52.266;10.536;2023-03-01T13:18:31;14.40;1.00
37032;DHT22;22940;52.266;10.536;2023-03-01T13:23:11;14.40;1.00
37032;DHT22;22940;52.266;10.536;2023-03-01T13:26:12;14.30;1.00
37032;DHT22;22940;52.266;10.536;2023-03-01T13:30:57;14.10;1.00
37032;DHT22;22940;52.266;10.536;2023-03-01T13:35:51;13.90;1.00
37032;DHT22;22940;52.266;10.536;2023-03-01T13:38:36;13.80;1.00
37032;DHT22;22940;52.266;10.536;2023-03-01T13:41:03;13.70;1.00
37032;DHT22;22940;52.266;10.536;2023-03-01T13:43:30;13.60;1.00
37032;DHT22;22940;52.266;10.536;2023-03-01T13:45:55;13.50;1.00
37032;DHT22;22940;52.266;10.536;2023-03-01T13:48:24;13.20;1.00
37032;DHT22;22940;52.266;10.536;2023-03-01T13:50:51;13.10;1.00
37032;DHT22;22940;52.266;10.536;2023-03-01T13:53:18;12.80;1.00
37032;DHT22;22940;52.266;10.536;2023-03-01T13:55:45;12.70;1.00
37032;DHT22;22940;52.266;10.536;2023-03-01T13:58:20;12.50;1.00
37032;DHT22;22940;52.266;10.536;2023-03-01T14:00:46;12.20;1.00
37032;DHT22;22940;52.266;10.536;2023-03-01T14:03:19;12.20;1.00
37032;DHT22;22940;52.266;10.536;2023-03-01T14:08:27;12.00;1.00
37032;DHT22;22940;52.266;10.536;2023-03-01T14:13:25;11.70;1.00
37032;DHT22;22940;52.266;10.536;2023-03-01T14:18:47;11.60;1.00
37032;DHT22;22940;52.266;10.536;2023-03-01T14:21:13;11.60;1.00
37032;DHT22;22940;52.266;10.536;2023-03-01T14:23:39;11.50;1.00
37032;DHT22;22940;52.266;10.536;2023-03-01T14:26:07;11.40;1.00
37032;DHT22;22940;52.266;10.536;2023-03-01T14:28:33;11.40;1.00
37032;DHT22;22940;52.266;10.536;2023-03-01T14:31:02;11.30;1.00
37032;DHT22;22940;52.266;10.536;2023-03-01T14:36:11;11.20;1.00
37032;DHT22;22940;52.266;10.536;2023-03-01T14:38:39;11.10;1.00
37032;DHT22;22940;52.266;10.536;2023-03-01T14:43:39;11.00;1.00
37032;DHT22;22940;52.266;10.536;2023-03-01T14:46:16;10.90;1.00
37032;DHT22;22940;52.266;10.536;2023-03-01T14:48:42;10.90;1.00
37032;DHT22;22940;52.266;10.536;2023-03-01T14:51:07;10.90;1.00
37032;DHT22;22940;52.266;10.536;2023-03-01T14:53:33;10.80;1.00
37032;DHT22;22940;52.266;10.536;2023-03-01T14:55:59;10.70;1.00
37032;DHT22;22940;52.266;10.536;2023-03-01T14:58:31;10.60;1.00
37032;DHT22;22940;52.266;10.536;2023-03-01T15:01:00;10.50;1.00
37032;DHT22;22940;52.266;10.536;2023-03-01T15:05:54;10.50;1.00
37032;DHT22;22940;52.266;10.536;2023-03-01T15:08:21;10.40;1.00
37032;DHT22;22940;52.266;10.536;2023-03-01T15:10:58;10.30;1.00
37032;DHT22;22940;52.266;10.536;2023-03-01T15:13:25;10.30;1.00
37032;DHT22;22940;52.266;10.536;2023-03-01T15:15:51;10.20;1.00
37032;DHT22;22940;52.266;10.536;2023-03-01T15:18:26;10.20;1.00
37032;DHT22;22940;52.266;10.536;2023-03-01T15:20:51;10.20;1.00
37032;DHT22;22940;52.266;10.536;2023-03-01T15:23:19;10.10;1.00
37032;DHT22;22940;52.266;10.536;2023-03-01T15:25:45;10.20;1.00
37032;DHT22;22940;52.266;10.536;2023-03-01T15:28:12;10.10;1.00
37032;DHT22;22940;52.266;10.536;2023-03-01T15:30:43;10.00;1.00
37032;DHT22;22940;52.266;10.536;2023-03-01T15:35:52;9.90;1.00
37032;DHT22;22940;52.266;10.536;2023-03-01T15:38:30;9.80;1.00
37032;DHT22;22940;52.266;10.536;2023-03-01T15:40:57;9.80;1.00
37032;DHT22;22940;52.266;10.536;2023-03-01T15:43:40;9.70;1.00
37032;DHT22;22940;52.266;10.536;2023-03-01T15:46:05;9.70;1.00
37032;DHT22;22940;52.266;10.536;2023-03-01T15:48:37;9.70;1.00
37032;DHT22;22940;52.266;10.536;2023-03-01T15:51:03;9.70;1.00
37032;DHT22;22940;52.266;10.536;2023-03-01T15:53:28;9.70;1.00
37032;DHT22;22940;52.266;10.536;2023-03-01T15:55:54;9.70;1.00
37032;DHT22;22940;52.266;10.536;2023-03-01T15:58:20;9.60;1.00
37032;DHT22;22940;52.266;10.536;2023-03-01T16:00:46;9.60;1.00
37032;DHT22;22940;52.266;10.536;2023-03-01T16:03:14;9.60;1.00
37032;DHT22;22940;52.266;10.536;2023-03-01T16:05:40;9.50;1.00
37032;DHT22;22940;52.266;10.536;2023-03-01T16:08:05;9.40;1.00
37032;DHT22;22940;52.266;10.536;2023-03-01T16:10:32;9.30;1.00
37032;DHT22;22940;52.266;10.536;2023-03-01T16:12:58;9.30;1.00
37032;DHT22;22940;52.266;10.536;2023-03-01T16:15:30;9.30;1.00
37032;DHT22;22940;52.266;10.536;2023-03-01T16:17:57;9.30;1.00
37032;DHT22;22940;52.266;10.536;2023-03-01T16:20:23;9.30;1.00
37032;DHT22;22940;52.266;10.536;2023-03-01T16:22:49;9.20;1.00
37032;DHT22;22940;52.266;10.536;2023-03-01T16:25:16;9.10;1.00
37032;DHT22;22940;52.266;10.536;2023-03-01T16:27:43;9.10;1.00
37032;DHT22;22940;52.266;10.536;2023-03-01T16:30:09;9.20;1.00
37032;DHT22;22940;52.266;10.536;2023-03-01T16:32:39;9.20;1.00
37032;DHT22;22940;52.266;10.536;2023-03-01T16:35:05;9.10;1.00
37032;DHT22;22940;52.266;10.536;2023-03-01T16:37:31;9.10;1.00
37032;DHT22;22940;52.266;10.536;2023-03-01T16:39:57;9.00;1.00
37032;DHT22;22940;52.266;10.536;2023-03-01T16:42:23;9.00;1.00
37032;DHT22;22940;52.266;10.536;2023-03-01T16:44:48;9.00;1.00
37032;DHT22;22940;52.266;10.536;2023-03-01T16:47:19;8.90;1.00
37032;DHT22;22940;52.266;10.536;2023-03-01T16:49:44;8.90;1.00
37032;DHT22;22940;52.266;10.536;2023-03-01T16:52:10;8.80;1.00
37032;DHT22;22940;52.266;10.536;2023-03-01T16:54:36;8.80;1.00
37032;DHT22;22940;52.266;10.536;2023-03-01T16:57:02;8.90;1.00
37032;DHT22;22940;52.266;10.536;2023-03-01T16:59:27;8.80;1.00
37032;DHT22;22940;52.266;10.536;2023-03-01T17:01:53;8.80;1.00
37032;DHT22;22940;52.266;10.536;2023-03-01T17:04:18;8.80;1.00
37032;DHT22;22940;52.266;10.536;2023-03-01T17:06:44;8.80;1.00
37032;DHT22;22940;52.266;10.536;2023-03-01T17:09:12;8.80;1.00
37032;DHT22;22940;52.266;10.536;2023-03-01T17:11:37;8.60;1.00
37032;DHT22;22940;52.266;10.536;2023-03-01T17:14:03;8.60;1.00
37032;DHT22;22940;52.266;10.536;2023-03-01T17:16:28;8.50;1.00
37032;DHT22;22940;52.266;10.536;2023-03-01T17:18:54;8.40;1.00
37032;DHT22;22940;52.266;10.536;2023-03-01T17:21:19;8.40;1.00
37032;DHT22;22940;52.266;10.536;2023-03-01T17:23:45;8.40;1.00
37032;DHT22;22940;52.266;10.536;2023-03-01T17:26:11;8.50;1.00
37032;DHT22;22940;52.266;10.536;2023-03-01T17:28:37;8.40;1.00
37032;DHT22;22940;52.266;10.536;2023-03-01T17:31:04;8.20;1.00
37032;DHT22;22940;52.266;10.536;2023-03-01T17:33:29;8.10;1.00
37032;DHT22;22940;52.266;10.536;2023-03-01T17:35:55;8.10;1.00
37032;DHT22;22940;52.266;10.536;2023-03-01T17:38:21;8.20;1.00
37032;DHT22;22940;52.266;10.536;2023-03-01T17:40:46;8.10;1.00
37032;DHT22;22940;52.266;10.536;2023-03-01T17:43:12;8.10;1.00
37032;DHT22;22940;52.266;10.536;2023-03-01T17:45:38;8.00;1.00
37032;DHT22;22940;52.266;10.536;2023-03-01T17:48:04;7.90;1.00
37032;DHT22;22940;52.266;10.536;2023-03-01T17:50:30;7.90;1.00
37032;DHT22;22940;52.266;10.536;2023-03-01T17:52:55;8.00;1.00
37032;DHT22;22940;52.266;10.536;2023-03-01T17:55:21;7.90;1.00
37032;DHT22;22940;52.266;10.536;2023-03-01T17:57:47;7.80;1.00
37032;DHT22;22940;52.266;10.536;2023-03-01T18:00:13;7.80;1.00
37032;DHT22;22940;52.266;10.536;2023-03-01T18:02:39;7.90;1.00
37032;DHT22;22940;52.266;10.536;2023-03-01T18:05:05;7.90;1.00
37032;DHT22;22940;52.266;10.536;2023-03-01T18:07:31;7.80;1.00
37032;DHT22;22940;52.266;10.536;2023-03-01T18:09:56;7.60;1.00
37032;DHT22;22940;52.266;10.536;2023-03-01T18:12:22;7.50;1.00
37032;DHT22;22940;52.266;10.536;2023-03-01T18:14:47;7.30;1.00
37032;DHT22;22940;52.266;10.536;2023-03-01T18:17:21;7.40;1.00
37032;DHT22;22940;52.266;10.536;2023-03-01T18:19:46;7.40;1.00
37032;DHT22;22940;52.266;10.536;2023-03-01T18:22:12;7.40;1.00
37032;DHT22;22940;52.266;10.536;2023-03-01T18:24:37;7.40;1.00
37032;DHT22;22940;52.266;10.536;2023-03-01T18:27:03;7.40;1.00
37032;DHT22;22940;52.266;10.536;2023-03-01T18:29:29;7.40;1.00
37032;DHT22;22940;52.266;10.536;2023-03-01T18:31:55;7.30;1.00
37032;DHT22;22940;52.266;10.536;2023-03-01T18:34:20;7.30;1.00
37032;DHT22;22940;52.266;10.536;2023-03-01T18:36:46;7.20;1.00
37032;DHT22;22940;52.266;10.536;2023-03-01T18:39:12;7.20;1.00
37032;DHT22;22940;52.266;10.536;2023-03-01T18:41:39;7.10;1.00
37032;DHT22;22940;52.266;10.536;2023-03-01T18:44:05;7.10;1.00
37032;DHT22;22940;52.266;10.536;2023-03-01T18:46:31;7.00;1.00
37032;DHT22;22940;52.266;10.536;2023-03-01T18:48:57;7.00;1.00
37032;DHT22;22940;52.266;10.536;2023-03-01T18:51:24;7.00;1.00
37032;DHT22;22940;52.266;10.536;2023-03-01T18:53:50;7.10;1.00
37032;DHT22;22940;52.266;10.536;2023-03-01T18:56:15;6.80;1.00
37032;DHT22;22940;52.266;10.536;2023-03-01T18:58:41;6.70;1.00
37032;DHT22;22940;52.266;10.536;2023-03-01T19:01:14;6.70;1.00
37032;DHT22;22940;52.266;10.536;2023-03-01T19:03:39;6.40;1.00
37032;DHT22;22940;52.266;10.536;2023-03-01T19:06:06;6.20;1.00
37032;DHT22;22940;52.266;10.536;2023-03-01T19:08:31;6.20;1.00
37032;DHT22;22940;52.266;10.536;2023-03-01T19:10:58;6.20;1.00
37032;DHT22;22940;52.266;10.536;2023-03-01T19:13:24;6.20;1.00
37032;DHT22;22940;52.266;10.536;2023-03-01T19:15:49;6.40;1.00
37032;DHT22;22940;52.266;10.536;2023-03-01T19:18:15;6.60;1.00
37032;DHT22;22940;52.266;10.536;2023-03-01T19:20:41;6.60;1.00
37032;DHT22;22940;52.266;10.536;2023-03-01T19:23:06;6.50;1.00
37032;DHT22;22940;52.266;10.536;2023-03-01T19:25:32;6.50;1.00
37032;DHT22;22940;52.266;10.536;2023-03-01T19:27:58;6.50;1.00
37032;DHT22;22940;52.266;10.536;2023-03-01T19:30:23;6.40;1.00
37032;DHT22;22940;52.266;10.536;2023-03-01T19:32:51;6.30;1.00
37032;DHT22;22940;52.266;10.536;2023-03-01T19:35:17;6.20;1.00
37032;DHT22;22940;52.266;10.536;2023-03-01T19:37:43;6.00;1.00
37032;DHT22;22940;52.266;10.536;2023-03-01T19:40:08;5.90;1.00
37032;DHT22;22940;52.266;10.536;2023-03-01T19:42:34;5.80;1.00
37032;DHT22;22940;52.266;10.536;2023-03-01T19:44:59;5.80;1.00
37032;DHT22;22940;52.266;10.536;2023-03-01T19:47:25;5.80;1.00
37032;DHT22;22940;52.266;10.536;2023-03-01T19:49:51;5.90;1.00
37032;DHT22;22940;52.266;10.536;2023-03-01T19:52:16;5.90;1.00
37032;DHT22;22940;52.266;10.536;2023-03-01T19:54:42;6.00;1.00
37032;DHT22;22940;52.266;10.536;2023-03-01T19:57:07;6.10;1.00
37032;DHT22;22940;52.266;10.536;2023-03-01T19:59:33;6.00;1.00
37032;DHT22;22940;52.266;10.536;2023-03-01T20:01:58;5.80;1.00
37032;DHT22;22940;52.266;10.536;2023-03-01T20:04:24;5.40;1.00
37032;DHT22;22940;52.266;10.536;2023-03-01T20:06:50;5.20;1.00
37032;DHT22;22940;52.266;10.536;2023-03-01T20:09:15;5.10;1.00
37032;DHT22;22940;52.266;10.536;2023-03-01T20:11:41;5.00;1.00
37032;DHT22;22940;52.266;10.536;2023-03-01T20:14:07;4.90;1.00
37032;DHT22;22940;52.266;10.536;2023-03-01T20:16:35;4.90;1.00
37032;DHT22;22940;52.266;10.536;2023-03-01T20:19:01;5.00;1.00
37032;DHT22;22940;52.266;10.536;2023-03-01T20:21:26;5.20;1.00
37032;DHT22;22940;52.266;10.536;2023-03-01T20:23:52;5.50;1.00
37032;DHT22;22940;52.266;10.536;2023-03-01T20:26:18;5.60;1.00
37032;DHT22;22940;52.266;10.536;2023-03-01T20:28:51;5.60;1.00
37032;DHT22;22940;52.266;10.536;2023-03-01T20:31:17;5.60;1.00
37032;DHT22;22940;52.266;10.536;2023-03-01T20:33:43;5.60;1.00
37032;DHT22;22940;52.266;10.536;2023-03-01T20:36:09;5.70;1.00
37032;DHT22;22940;52.266;10.536;2023-03-01T20:38:35;5.80;1.00
37032;DHT22;22940;52.266;10.536;2023-03-01T20:41:01;5.80;1.00
37032;DHT22;22940;52.266;10.536;2023-03-01T20:43:27;5.70;1.00
37032;DHT22;22940;52.266;10.536;2023-03-01T20:45:52;5.70;1.00
37032;DHT22;22940;52.266;10.536;2023-03-01T20:48:18;5.60;1.00
37032;DHT22;22940;52.266;10.536;2023-03-01T20:50:44;5.50;1.00
37032;DHT22;22940;52.266;10.536;2023-03-01T20:53:09;5.50;1.00
37032;DHT22;22940;52.266;10.536;2023-03-01T20:55:35;5.40;1.00
37032;DHT22;22940;52.266;10.536;2023-03-01T20:58:00;5.50;1.00
37032;DHT22;22940;52.266;10.536;2023-03-01T21:00:26;5.60;1.00
37032;DHT22;22940;52.266;10.536;2023-03-01T21:02:52;5.60;1.00
37032;DHT22;22940;52.266;10.536;2023-03-01T21:05:18;5.60;1.00
37032;DHT22;22940;52.266;10.536;2023-03-01T21:07:44;5.60;1.00
37032;DHT22;22940;52.266;10.536;2023-03-01T21:10:10;5.50;1.00
37032;DHT22;22940;52.266;10.536;2023-03-01T21:12:36;5.40;1.00
37032;DHT22;22940;52.266;10.536;2023-03-01T21:15:01;5.50;1.00
37032;DHT22;22940;52.266;10.536;2023-03-01T21:17:27;5.50;1.00
37032;DHT22;22940;52.266;10.536;2023-03-01T21:19:52;5.30;1.00
37032;DHT22;22940;52.266;10.536;2023-03-01T21:22:18;5.30;1.00
37032;DHT22;22940;52.266;10.536;2023-03-01T21:24:43;5.20;1.00
37032;DHT22;22940;52.266;10.536;2023-03-01T21:27:09;5.40;1.00
37032;DHT22;22940;52.266;10.536;2023-03-01T21:29:42;5.30;1.00
37032;DHT22;22940;52.266;10.536;2023-03-01T21:32:08;5.20;1.00
37032;DHT22;22940;52.266;10.536;2023-03-01T21:34:34;5.30;1.00
37032;DHT22;22940;52.266;10.536;2023-03-01T21:37:00;5.10;1.00
37032;DHT22;22940;52.266;10.536;2023-03-01T21:39:26;4.70;1.00
37032;DHT22;22940;52.266;10.536;2023-03-01T21:41:56;4.50;1.00
37032;DHT22;22940;52.266;10.536;2023-03-01T21:44:23;4.40;1.00
37032;DHT22;22940;52.266;10.536;2023-03-01T21:46:49;4.50;1.00
37032;DHT22;22940;52.266;10.536;2023-03-01T21:49:14;4.70;1.00
37032;DHT22;22940;52.266;10.536;2023-03-01T21:51:40;4.70;1.00
37032;DHT22;22940;52.266;10.536;2023-03-01T21:54:06;4.70;1.00
37032;DHT22;22940;52.266;10.536;2023-03-01T21:56:32;4.60;1.00
37032;DHT22;22940;52.266;10.536;2023-03-01T21:58:59;4.40;1.00
37032;DHT22;22940;52.266;10.536;2023-03-01T22:01:25;4.20;1.00
37032;DHT22;22940;52.266;10.536;2023-03-01T22:03:54;4.10;1.00
37032;DHT22;22940;52.266;10.536;2023-03-01T22:06:21;4.10;1.00
37032;DHT22;22940;52.266;10.536;2023-03-01T22:08:52;4.20;1.00
37032;DHT22;22940;52.266;10.536;2023-03-01T22:11:19;4.10;1.00
37032;DHT22;22940;52.266;10.536;2023-03-01T22:13:46;3.90;1.00
37032;DHT22;22940;52.266;10.536;2023-03-01T22:16:14;3.60;1.00
37032;DHT22;22940;52.266;10.536;2023-03-01T22:18:39;3.60;1.00
37032;DHT22;22940;52.266;10.536;2023-03-01T22:21:05;3.60;1.00
37032;DHT22;22940;52.266;10.536;2023-03-01T22:23:32;3.80;1.00
37032;DHT22;22940;52.266;10.536;2023-03-01T22:25:58;3.80;1.00
37032;DHT22;22940;52.266;10.536;2023-03-01T22:28:24;3.70;1.00
37032;DHT22;22940;52.266;10.536;2023-03-01T22:30:49;3.60;1.00
37032;DHT22;22940;52.266;10.536;2023-03-01T22:33:15;3.70;1.00
37032;DHT22;22940;52.266;10.536;2023-03-01T22:35:41;3.80;1.00
37032;DHT22;22940;52.266;10.536;2023-03-01T22:38:06;3.80;1.00
37032;DHT22;22940;52.266;10.536;2023-03-01T22:40:32;4.10;1.00
37032;DHT22;22940;52.266;10.536;2023-03-01T22:42:57;3.90;1.00
37032;DHT22;22940;52.266;10.536;2023-03-01T22:45:23;3.90;1.00
37032;DHT22;22940;52.266;10.536;2023-03-01T22:47:48;3.90;1.00
37032;DHT22;22940;52.266;10.536;2023-03-01T22:50:14;4.00;1.00
37032;DHT22;22940;52.266;10.536;2023-03-01T22:52:40;4.10;1.00
37032;DHT22;22940;52.266;10.536;2023-03-01T22:55:06;4.00;1.00
37032;DHT22;22940;52.266;10.536;2023-03-01T22:57:32;3.80;1.00
37032;DHT22;22940;52.266;10.536;2023-03-01T22:59:57;3.90;1.00
37032;DHT22;22940;52.266;10.536;2023-03-01T23:02:23;4.00;1.00
37032;DHT22;22940;52.266;10.536;2023-03-01T23:04:49;4.20;1.00
37032;DHT22;22940;52.266;10.536;2023-03-01T23:07:15;4.30;1.00
37032;DHT22;22940;52.266;10.536;2023-03-01T23:09:41;4.20;1.00
37032;DHT22;22940;52.266;10.536;2023-03-01T23:12:06;4.20;1.00
37032;DHT22;22940;52.266;10.536;2023-03-01T23:14:33;4.20;1.00
37032;DHT22;22940;52.266;10.536;2023-03-01T23:16:59;4.20;1.00
37032;DHT22;22940;52.266;10.536;2023-03-01T23:19:26;4.30;1.00
37032;DHT22;22940;52.266;10.536;2023-03-01T23:21:51;4.20;1.00
37032;DHT22;22940;52.266;10.536;2023-03-01T23:24:20;4.20;1.00
37032;DHT22;22940;52.266;10.536;2023-03-01T23:26:45;4.20;1.00
37032;DHT22;22940;52.266;10.536;2023-03-01T23:29:16;4.20;1.00
37032;DHT22;22940;52.266;10.536;2023-03-01T23:31:41;4.20;1.00
37032;DHT22;22940;52.266;10.536;2023-03-01T23:36:33;4.00;1.00
37032;DHT22;22940;52.266;10.536;2023-03-01T23:39:00;3.90;1.00
37032;DHT22;22940;52.266;10.536;2023-03-01T23:41:27;3.70;1.00
37032;DHT22;22940;52.266;10.536;2023-03-01T23:43:54;3.40;1.00
37032;DHT22;22940;52.266;10.536;2023-03-01T23:46:21;3.30;1.00
37032;DHT22;22940;52.266;10.536;2023-03-01T23:48:47;3.20;1.00
37032;DHT22;22940;52.266;10.536;2023-03-01T23:51:13;3.10;1.00
37032;DHT22;22940;52.266;10.536;2023-03-01T23:53:40;3.00;1.00
37032;DHT22;22940;52.266;10.536;2023-03-01T23:56:06;3.00;1.00
37032;DHT22;22940;52.266;10.536;2023-03-01T23:58:32;2.70;1.00
